Hauptseite
METAR-TAF:

METAR-TAF

Flughäfen :

RAF Boulmer

Boulmer, England

Breite: 55-25-19N, Länge: 1-36-12W, Höhe: 24 m

Beobachtung

Neuester Wetterbericht von vor 31 Minuten, um 14:50 UTC
Wind 9 kt aus Nord/Nordost
Temperatur 16°C
Luftfeuchtigkeit 82%
Luftdruck 1021 hPa
Sichtweite 10 km oder mehr

METAR: EGQM 231450Z AUTO 03009KT 9999 NCD 16/13 Q1021

Zeit: 16:21 (15:21 UTC)


TAF: fehlend

Wetterbeobachtungen und Prognosen von mehr als 4000 Flughäfen (METAR und TAF Bericht).

Die verfügbaren Stationen werden durch gelbe und rote Markierungen auf der Karte dargestellt.

Führen Sie die Maus auf sie, um den Namen der Station zu sehen.

Darauf klicken, um die Beobachtung von Wetterbeobachtungen und Prognosen zu sehen.

Um die Karte zu ändern : klicken Sie auf den grünen Tasten mit einem schwarzen Kreuz Zum Vergrößern, auf den grünen Button mit einem Gedankenstrich zu verkleinern, oder auf die grünen Pfeile für benachbarte Karten.


METAR-TAF: